sensor_id;sensor_type;location;lat;lon;timestamp;temperature;humidity
3562;DHT22;1795;52.074;4.754;2022-09-12T00:01:07;17.70;99.90
3562;DHT22;1795;52.074;4.754;2022-09-12T00:03:36;17.70;99.90
3562;DHT22;1795;52.074;4.754;2022-09-12T00:06:10;17.60;99.90
3562;DHT22;1795;52.074;4.754;2022-09-12T00:08:38;17.60;99.90
3562;DHT22;1795;52.074;4.754;2022-09-12T00:11:08;17.60;99.90
3562;DHT22;1795;52.074;4.754;2022-09-12T00:13:38;17.60;99.90
3562;DHT22;1795;52.074;4.754;2022-09-12T00:16:14;17.50;99.90
3562;DHT22;1795;52.074;4.754;2022-09-12T00:18:43;17.50;99.90
3562;DHT22;1795;52.074;4.754;2022-09-12T00:21:13;17.50;99.90
3562;DHT22;1795;52.074;4.754;2022-09-12T00:23:41;17.50;99.90
3562;DHT22;1795;52.074;4.754;2022-09-12T00:26:09;17.40;99.90
3562;DHT22;1795;52.074;4.754;2022-09-12T00:28:39;17.40;99.90
3562;DHT22;1795;52.074;4.754;2022-09-12T00:31:10;17.40;99.90
3562;DHT22;1795;52.074;4.754;2022-09-12T00:33:39;17.40;99.90
3562;DHT22;1795;52.074;4.754;2022-09-12T00:36:10;17.40;99.90
3562;DHT22;1795;52.074;4.754;2022-09-12T00:38:39;17.30;99.90
3562;DHT22;1795;52.074;4.754;2022-09-12T00:41:13;17.30;99.90
3562;DHT22;1795;52.074;4.754;2022-09-12T00:43:43;17.30;99.90
3562;DHT22;1795;52.074;4.754;2022-09-12T00:46:19;17.30;99.90
3562;DHT22;1795;52.074;4.754;2022-09-12T00:48:53;17.20;99.90
3562;DHT22;1795;52.074;4.754;2022-09-12T00:51:23;17.20;99.90
3562;DHT22;1795;52.074;4.754;2022-09-12T00:53:52;17.20;99.90
3562;DHT22;1795;52.074;4.754;2022-09-12T00:56:22;17.20;99.90
3562;DHT22;1795;52.074;4.754;2022-09-12T00:58:54;17.10;99.90
3562;DHT22;1795;52.074;4.754;2022-09-12T01:01:25;17.10;99.90
3562;DHT22;1795;52.074;4.754;2022-09-12T01:03:58;17.10;99.90
3562;DHT22;1795;52.074;4.754;2022-09-12T01:06:29;17.10;99.90
3562;DHT22;1795;52.074;4.754;2022-09-12T01:08:59;17.10;99.90
3562;DHT22;1795;52.074;4.754;2022-09-12T01:11:30;17.00;99.90
3562;DHT22;1795;52.074;4.754;2022-09-12T01:13:58;17.00;99.90
3562;DHT22;1795;52.074;4.754;2022-09-12T01:16:28;17.00;99.90
3562;DHT22;1795;52.074;4.754;2022-09-12T01:19:06;17.00;99.90
3562;DHT22;1795;52.074;4.754;2022-09-12T01:21:49;17.00;99.90
3562;DHT22;1795;52.074;4.754;2022-09-12T01:24:36;16.90;99.90
3562;DHT22;1795;52.074;4.754;2022-09-12T01:33:47;16.90;99.90
3562;DHT22;1795;52.074;4.754;2022-09-12T01:36:30;16.90;99.90
3562;DHT22;1795;52.074;4.754;2022-09-12T01:39:02;16.80;99.90
3562;DHT22;1795;52.074;4.754;2022-09-12T01:41:40;16.80;99.90
3562;DHT22;1795;52.074;4.754;2022-09-12T01:44:13;16.80;99.90
3562;DHT22;1795;52.074;4.754;2022-09-12T01:46:49;16.80;99.90
3562;DHT22;1795;52.074;4.754;2022-09-12T01:49:22;16.80;99.90
3562;DHT22;1795;52.074;4.754;2022-09-12T01:51:56;16.80;99.90
3562;DHT22;1795;52.074;4.754;2022-09-12T01:54:30;16.80;99.90
3562;DHT22;1795;52.074;4.754;2022-09-12T01:57:03;16.70;99.90
3562;DHT22;1795;52.074;4.754;2022-09-12T01:59:36;16.70;99.90
3562;DHT22;1795;52.074;4.754;2022-09-12T02:02:10;16.70;99.90
3562;DHT22;1795;52.074;4.754;2022-09-12T02:04:43;16.70;99.90
3562;DHT22;1795;52.074;4.754;2022-09-12T02:07:17;16.70;99.90
3562;DHT22;1795;52.074;4.754;2022-09-12T02:09:49;16.70;99.90
3562;DHT22;1795;52.074;4.754;2022-09-12T02:12:20;16.60;99.90
3562;DHT22;1795;52.074;4.754;2022-09-12T02:14:52;16.60;99.90
3562;DHT22;1795;52.074;4.754;2022-09-12T02:17:25;16.60;99.90
3562;DHT22;1795;52.074;4.754;2022-09-12T02:19:56;16.60;99.90
3562;DHT22;1795;52.074;4.754;2022-09-12T02:22:26;16.60;99.90
3562;DHT22;1795;52.074;4.754;2022-09-12T02:24:59;16.60;99.90
3562;DHT22;1795;52.074;4.754;2022-09-12T02:27:31;16.60;99.90
3562;DHT22;1795;52.074;4.754;2022-09-12T02:30:04;16.60;99.90
3562;DHT22;1795;52.074;4.754;2022-09-12T02:32:37;16.60;99.90
3562;DHT22;1795;52.074;4.754;2022-09-12T02:35:12;16.50;99.90
3562;DHT22;1795;52.074;4.754;2022-09-12T02:37:51;16.50;99.90
3562;DHT22;1795;52.074;4.754;2022-09-12T02:40:22;16.50;99.90
3562;DHT22;1795;52.074;4.754;2022-09-12T02:42:50;16.50;99.90
3562;DHT22;1795;52.074;4.754;2022-09-12T02:45:19;16.50;99.90
3562;DHT22;1795;52.074;4.754;2022-09-12T02:47:53;16.40;99.90
3562;DHT22;1795;52.074;4.754;2022-09-12T02:50:24;16.40;99.90
3562;DHT22;1795;52.074;4.754;2022-09-12T02:52:52;16.40;99.90
3562;DHT22;1795;52.074;4.754;2022-09-12T02:55:26;16.40;99.90
3562;DHT22;1795;52.074;4.754;2022-09-12T02:57:56;16.40;99.90
3562;DHT22;1795;52.074;4.754;2022-09-12T03:00:24;16.40;99.90
3562;DHT22;1795;52.074;4.754;2022-09-12T03:03:16;16.40;99.90
3562;DHT22;1795;52.074;4.754;2022-09-12T03:05:54;16.40;99.90
3562;DHT22;1795;52.074;4.754;2022-09-12T03:08:41;16.40;99.90
3562;DHT22;1795;52.074;4.754;2022-09-12T03:11:28;16.40;99.90
3562;DHT22;1795;52.074;4.754;2022-09-12T03:14:09;16.30;99.90
3562;DHT22;1795;52.074;4.754;2022-09-12T03:16:43;16.30;99.90
3562;DHT22;1795;52.074;4.754;2022-09-12T03:19:23;16.30;99.90
3562;DHT22;1795;52.074;4.754;2022-09-12T03:22:02;16.30;99.90
3562;DHT22;1795;52.074;4.754;2022-09-12T03:24:39;16.30;99.90
3562;DHT22;1795;52.074;4.754;2022-09-12T03:27:14;16.30;99.90
3562;DHT22;1795;52.074;4.754;2022-09-12T03:29:44;16.30;99.90
3562;DHT22;1795;52.074;4.754;2022-09-12T03:32:14;16.30;99.90
3562;DHT22;1795;52.074;4.754;2022-09-12T03:34:43;16.30;99.90
3562;DHT22;1795;52.074;4.754;2022-09-12T03:37:11;16.30;99.90
3562;DHT22;1795;52.074;4.754;2022-09-12T03:39:40;16.20;99.90
3562;DHT22;1795;52.074;4.754;2022-09-12T03:42:08;16.20;99.90
3562;DHT22;1795;52.074;4.754;2022-09-12T03:44:35;16.20;99.90
3562;DHT22;1795;52.074;4.754;2022-09-12T03:47:03;16.20;99.90
3562;DHT22;1795;52.074;4.754;2022-09-12T03:49:36;16.20;99.90
3562;DHT22;1795;52.074;4.754;2022-09-12T03:52:06;16.20;99.90
3562;DHT22;1795;52.074;4.754;2022-09-12T03:54:34;16.20;99.90
3562;DHT22;1795;52.074;4.754;2022-09-12T03:57:02;16.20;99.90
3562;DHT22;1795;52.074;4.754;2022-09-12T03:59:30;16.20;99.90
3562;DHT22;1795;52.074;4.754;2022-09-12T04:01:58;16.20;99.90
3562;DHT22;1795;52.074;4.754;2022-09-12T04:04:27;16.20;99.90
3562;DHT22;1795;52.074;4.754;2022-09-12T04:06:54;16.20;99.90
3562;DHT22;1795;52.074;4.754;2022-09-12T04:09:24;16.20;99.90
3562;DHT22;1795;52.074;4.754;2022-09-12T04:11:52;16.20;99.90
3562;DHT22;1795;52.074;4.754;2022-09-12T04:14:20;16.20;99.90
3562;DHT22;1795;52.074;4.754;2022-09-12T04:16:48;16.20;99.90
3562;DHT22;1795;52.074;4.754;2022-09-12T04:19:16;16.10;99.90
3562;DHT22;1795;52.074;4.754;2022-09-12T04:21:44;16.10;99.90
3562;DHT22;1795;52.074;4.754;2022-09-12T04:24:12;16.10;99.90
3562;DHT22;1795;52.074;4.754;2022-09-12T04:26:42;16.10;99.90
3562;DHT22;1795;52.074;4.754;2022-09-12T04:29:10;16.10;99.90
3562;DHT22;1795;52.074;4.754;2022-09-12T04:31:38;16.10;99.90
3562;DHT22;1795;52.074;4.754;2022-09-12T04:34:06;16.10;99.90
3562;DHT22;1795;52.074;4.754;2022-09-12T04:36:34;16.10;99.90
3562;DHT22;1795;52.074;4.754;2022-09-12T04:39:03;16.10;99.90
3562;DHT22;1795;52.074;4.754;2022-09-12T04:41:33;16.10;99.90
3562;DHT22;1795;52.074;4.754;2022-09-12T04:44:05;16.10;99.90
3562;DHT22;1795;52.074;4.754;2022-09-12T04:46:35;16.10;99.90
3562;DHT22;1795;52.074;4.754;2022-09-12T04:49:04;16.10;99.90
3562;DHT22;1795;52.074;4.754;2022-09-12T04:51:33;16.10;99.90
3562;DHT22;1795;52.074;4.754;2022-09-12T04:54:04;16.10;99.90
3562;DHT22;1795;52.074;4.754;2022-09-12T04:56:35;16.10;99.90
3562;DHT22;1795;52.074;4.754;2022-09-12T04:59:05;16.10;99.90
3562;DHT22;1795;52.074;4.754;2022-09-12T05:01:34;16.00;99.90
3562;DHT22;1795;52.074;4.754;2022-09-12T05:04:02;16.00;99.90
3562;DHT22;1795;52.074;4.754;2022-09-12T05:06:32;16.00;99.90
3562;DHT22;1795;52.074;4.754;2022-09-12T05:09:02;16.00;99.90
3562;DHT22;1795;52.074;4.754;2022-09-12T05:11:31;16.00;99.90
3562;DHT22;1795;52.074;4.754;2022-09-12T05:14:21;16.00;99.90
3562;DHT22;1795;52.074;4.754;2022-09-12T05:16:49;16.00;99.90
3562;DHT22;1795;52.074;4.754;2022-09-12T05:19:17;16.00;99.90
3562;DHT22;1795;52.074;4.754;2022-09-12T05:21:45;16.00;99.90
3562;DHT22;1795;52.074;4.754;2022-09-12T05:24:13;16.00;99.90
3562;DHT22;1795;52.074;4.754;2022-09-12T05:26:40;15.90;99.90
3562;DHT22;1795;52.074;4.754;2022-09-12T05:29:08;15.90;99.90
3562;DHT22;1795;52.074;4.754;2022-09-12T05:31:40;15.90;99.90
3562;DHT22;1795;52.074;4.754;2022-09-12T05:34:08;15.90;99.90
3562;DHT22;1795;52.074;4.754;2022-09-12T05:36:36;15.90;99.90
3562;DHT22;1795;52.074;4.754;2022-09-12T05:39:05;15.90;99.90
3562;DHT22;1795;52.074;4.754;2022-09-12T05:41:34;15.90;99.90
3562;DHT22;1795;52.074;4.754;2022-09-12T05:44:04;15.90;99.90
3562;DHT22;1795;52.074;4.754;2022-09-12T05:46:36;15.90;99.90
3562;DHT22;1795;52.074;4.754;2022-09-12T05:49:07;15.80;99.90
3562;DHT22;1795;52.074;4.754;2022-09-12T05:51:37;15.80;99.90
3562;DHT22;1795;52.074;4.754;2022-09-12T05:54:08;15.80;99.90
3562;DHT22;1795;52.074;4.754;2022-09-12T05:56:38;15.80;99.90
3562;DHT22;1795;52.074;4.754;2022-09-12T05:59:09;15.80;99.90
3562;DHT22;1795;52.074;4.754;2022-09-12T06:01:39;15.80;99.90
3562;DHT22;1795;52.074;4.754;2022-09-12T06:04:08;15.80;99.90
3562;DHT22;1795;52.074;4.754;2022-09-12T06:06:38;15.80;99.90
3562;DHT22;1795;52.074;4.754;2022-09-12T06:09:07;15.80;99.90
3562;DHT22;1795;52.074;4.754;2022-09-12T06:11:38;15.80;99.90
3562;DHT22;1795;52.074;4.754;2022-09-12T06:14:08;15.80;99.90
3562;DHT22;1795;52.074;4.754;2022-09-12T06:16:37;15.80;99.90
3562;DHT22;1795;52.074;4.754;2022-09-12T06:19:11;15.70;99.90
3562;DHT22;1795;52.074;4.754;2022-09-12T06:21:40;15.70;99.90
3562;DHT22;1795;52.074;4.754;2022-09-12T06:24:08;15.70;99.90
3562;DHT22;1795;52.074;4.754;2022-09-12T06:26:36;15.70;99.90
3562;DHT22;1795;52.074;4.754;2022-09-12T06:29:04;15.70;99.90
3562;DHT22;1795;52.074;4.754;2022-09-12T06:31:34;15.80;99.90
3562;DHT22;1795;52.074;4.754;2022-09-12T06:34:04;15.70;99.90
3562;DHT22;1795;52.074;4.754;2022-09-12T06:36:36;15.70;99.90
3562;DHT22;1795;52.074;4.754;2022-09-12T06:39:06;15.80;99.90
3562;DHT22;1795;52.074;4.754;2022-09-12T06:41:34;15.70;99.90
3562;DHT22;1795;52.074;4.754;2022-09-12T06:44:09;15.70;99.90
3562;DHT22;1795;52.074;4.754;2022-09-12T06:46:38;15.80;99.90
3562;DHT22;1795;52.074;4.754;2022-09-12T06:49:06;15.80;99.90
3562;DHT22;1795;52.074;4.754;2022-09-12T06:51:35;15.80;99.90
3562;DHT22;1795;52.074;4.754;2022-09-12T06:54:04;15.80;99.90
3562;DHT22;1795;52.074;4.754;2022-09-12T06:56:32;15.80;99.90
3562;DHT22;1795;52.074;4.754;2022-09-12T06:59:00;15.80;99.90
3562;DHT22;1795;52.074;4.754;2022-09-12T07:01:29;15.80;99.90
3562;DHT22;1795;52.074;4.754;2022-09-12T07:03:59;15.80;99.90
3562;DHT22;1795;52.074;4.754;2022-09-12T07:06:29;15.90;99.90
3562;DHT22;1795;52.074;4.754;2022-09-12T07:09:02;15.90;99.90
3562;DHT22;1795;52.074;4.754;2022-09-12T07:11:31;15.90;99.90
3562;DHT22;1795;52.074;4.754;2022-09-12T07:14:01;16.00;99.90
3562;DHT22;1795;52.074;4.754;2022-09-12T07:16:29;16.00;99.90
3562;DHT22;1795;52.074;4.754;2022-09-12T07:18:58;16.00;99.90
3562;DHT22;1795;52.074;4.754;2022-09-12T07:21:27;16.10;99.90
3562;DHT22;1795;52.074;4.754;2022-09-12T07:23:56;16.10;99.90
3562;DHT22;1795;52.074;4.754;2022-09-12T07:26:27;16.10;99.90
3562;DHT22;1795;52.074;4.754;2022-09-12T07:28:56;16.20;99.90
3562;DHT22;1795;52.074;4.754;2022-09-12T07:31:45;16.20;99.90
3562;DHT22;1795;52.074;4.754;2022-09-12T07:34:12;16.20;99.90
3562;DHT22;1795;52.074;4.754;2022-09-12T07:36:40;16.30;99.90
3562;DHT22;1795;52.074;4.754;2022-09-12T07:39:08;16.30;99.90
3562;DHT22;1795;52.074;4.754;2022-09-12T07:41:39;16.40;99.90
3562;DHT22;1795;52.074;4.754;2022-09-12T07:44:07;16.40;99.90
3562;DHT22;1795;52.074;4.754;2022-09-12T07:46:35;16.50;99.90
3562;DHT22;1795;52.074;4.754;2022-09-12T07:49:03;16.50;99.90
3562;DHT22;1795;52.074;4.754;2022-09-12T07:51:31;16.60;99.90
3562;DHT22;1795;52.074;4.754;2022-09-12T07:53:59;16.60;99.90
3562;DHT22;1795;52.074;4.754;2022-09-12T07:56:28;16.70;99.90
3562;DHT22;1795;52.074;4.754;2022-09-12T07:59:03;16.80;99.90
3562;DHT22;1795;52.074;4.754;2022-09-12T08:01:31;16.80;99.90
3562;DHT22;1795;52.074;4.754;2022-09-12T08:04:00;16.90;99.90
3562;DHT22;1795;52.074;4.754;2022-09-12T08:06:29;17.00;99.90
3562;DHT22;1795;52.074;4.754;2022-09-12T08:08:58;17.00;99.90
3562;DHT22;1795;52.074;4.754;2022-09-12T08:11:28;17.10;99.90
3562;DHT22;1795;52.074;4.754;2022-09-12T08:13:56;17.20;99.90
3562;DHT22;1795;52.074;4.754;2022-09-12T08:16:27;17.20;99.90
3562;DHT22;1795;52.074;4.754;2022-09-12T08:18:58;17.30;99.90
3562;DHT22;1795;52.074;4.754;2022-09-12T08:21:29;17.30;99.90
3562;DHT22;1795;52.074;4.754;2022-09-12T08:23:59;17.40;99.90
3562;DHT22;1795;52.074;4.754;2022-09-12T08:26:28;17.50;99.90
3562;DHT22;1795;52.074;4.754;2022-09-12T08:28:56;17.50;99.90
3562;DHT22;1795;52.074;4.754;2022-09-12T08:31:26;17.60;99.90
3562;DHT22;1795;52.074;4.754;2022-09-12T08:33:55;17.70;99.90
3562;DHT22;1795;52.074;4.754;2022-09-12T08:36:25;17.70;99.90
3562;DHT22;1795;52.074;4.754;2022-09-12T08:38:55;17.80;99.90
3562;DHT22;1795;52.074;4.754;2022-09-12T08:41:29;17.90;99.90
3562;DHT22;1795;52.074;4.754;2022-09-12T08:44:12;17.90;99.90
3562;DHT22;1795;52.074;4.754;2022-09-12T08:46:51;18.00;99.90
3562;DHT22;1795;52.074;4.754;2022-09-12T08:49:26;18.00;99.90
3562;DHT22;1795;52.074;4.754;2022-09-12T08:51:58;18.10;99.90
3562;DHT22;1795;52.074;4.754;2022-09-12T08:54:28;18.20;99.90
3562;DHT22;1795;52.074;4.754;2022-09-12T08:57:00;18.30;99.90
3562;DHT22;1795;52.074;4.754;2022-09-12T08:59:33;18.30;99.90
3562;DHT22;1795;52.074;4.754;2022-09-12T09:02:13;18.40;99.90
3562;DHT22;1795;52.074;4.754;2022-09-12T09:04:49;18.50;99.90
3562;DHT22;1795;52.074;4.754;2022-09-12T09:10:22;18.60;99.90
3562;DHT22;1795;52.074;4.754;2022-09-12T09:12:56;18.70;99.90
3562;DHT22;1795;52.074;4.754;2022-09-12T09:15:36;18.90;99.90
3562;DHT22;1795;52.074;4.754;2022-09-12T09:18:14;19.00;99.90
3562;DHT22;1795;52.074;4.754;2022-09-12T09:20:47;19.10;99.90
3562;DHT22;1795;52.074;4.754;2022-09-12T09:23:21;19.10;99.90
3562;DHT22;1795;52.074;4.754;2022-09-12T09:25:54;19.20;99.90
3562;DHT22;1795;52.074;4.754;2022-09-12T09:28:29;19.30;99.90
3562;DHT22;1795;52.074;4.754;2022-09-12T09:30:58;19.40;99.90
3562;DHT22;1795;52.074;4.754;2022-09-12T09:33:32;19.50;99.90
3562;DHT22;1795;52.074;4.754;2022-09-12T09:36:06;19.60;99.90
3562;DHT22;1795;52.074;4.754;2022-09-12T09:38:44;19.70;99.90
3562;DHT22;1795;52.074;4.754;2022-09-12T09:41:28;19.80;99.90
3562;DHT22;1795;52.074;4.754;2022-09-12T09:43:58;19.90;99.90
3562;DHT22;1795;52.074;4.754;2022-09-12T09:46:27;20.00;99.90
3562;DHT22;1795;52.074;4.754;2022-09-12T09:48:57;20.00;99.90
3562;DHT22;1795;52.074;4.754;2022-09-12T09:51:35;20.10;99.90
3562;DHT22;1795;52.074;4.754;2022-09-12T09:54:12;20.30;99.90
3562;DHT22;1795;52.074;4.754;2022-09-12T09:56:43;20.30;99.90
3562;DHT22;1795;52.074;4.754;2022-09-12T09:59:14;20.40;99.90
3562;DHT22;1795;52.074;4.754;2022-09-12T10:01:46;20.50;99.90
3562;DHT22;1795;52.074;4.754;2022-09-12T10:04:21;20.60;99.90
3562;DHT22;1795;52.074;4.754;2022-09-12T10:06:50;20.70;99.90
3562;DHT22;1795;52.074;4.754;2022-09-12T10:09:22;20.80;99.90
3562;DHT22;1795;52.074;4.754;2022-09-12T10:11:51;20.90;99.90
3562;DHT22;1795;52.074;4.754;2022-09-12T10:14:34;21.00;99.90
3562;DHT22;1795;52.074;4.754;2022-09-12T10:19:49;21.10;99.90
3562;DHT22;1795;52.074;4.754;2022-09-12T10:22:37;21.20;99.90
3562;DHT22;1795;52.074;4.754;2022-09-12T10:25:10;21.30;99.90
3562;DHT22;1795;52.074;4.754;2022-09-12T10:27:40;21.40;99.90
3562;DHT22;1795;52.074;4.754;2022-09-12T10:30:16;21.50;99.90
3562;DHT22;1795;52.074;4.754;2022-09-12T10:32:47;21.60;99.90
3562;DHT22;1795;52.074;4.754;2022-09-12T10:35:20;21.70;99.90
3562;DHT22;1795;52.074;4.754;2022-09-12T10:37:53;21.80;99.90
3562;DHT22;1795;52.074;4.754;2022-09-12T10:40:24;21.90;99.90
3562;DHT22;1795;52.074;4.754;2022-09-12T10:42:54;21.90;99.90
3562;DHT22;1795;52.074;4.754;2022-09-12T10:45:25;22.00;99.90
3562;DHT22;1795;52.074;4.754;2022-09-12T10:47:56;22.10;99.90
3562;DHT22;1795;52.074;4.754;2022-09-12T10:50:35;22.10;99.90
3562;DHT22;1795;52.074;4.754;2022-09-12T10:53:13;22.20;99.90
3562;DHT22;1795;52.074;4.754;2022-09-12T10:56:00;22.30;99.90
3562;DHT22;1795;52.074;4.754;2022-09-12T10:58:41;22.40;99.90
3562;DHT22;1795;52.074;4.754;2022-09-12T11:01:25;22.50;99.90
3562;DHT22;1795;52.074;4.754;2022-09-12T11:04:19;22.50;99.90
3562;DHT22;1795;52.074;4.754;2022-09-12T11:06:57;22.60;99.90
3562;DHT22;1795;52.074;4.754;2022-09-12T11:09:33;22.70;99.90
3562;DHT22;1795;52.074;4.754;2022-09-12T11:12:09;22.80;99.90
3562;DHT22;1795;52.074;4.754;2022-09-12T11:14:49;22.90;99.90
3562;DHT22;1795;52.074;4.754;2022-09-12T11:17:27;22.90;99.90
3562;DHT22;1795;52.074;4.754;2022-09-12T11:20:14;23.00;99.90
3562;DHT22;1795;52.074;4.754;2022-09-12T11:23:03;23.10;99.90
3562;DHT22;1795;52.074;4.754;2022-09-12T11:25:37;23.10;99.90
3562;DHT22;1795;52.074;4.754;2022-09-12T11:28:31;23.20;99.90
3562;DHT22;1795;52.074;4.754;2022-09-12T11:31:22;23.20;99.90
3562;DHT22;1795;52.074;4.754;2022-09-12T11:33:51;23.30;99.90
3562;DHT22;1795;52.074;4.754;2022-09-12T11:36:30;23.40;99.90
3562;DHT22;1795;52.074;4.754;2022-09-12T11:39:12;23.50;99.90
3562;DHT22;1795;52.074;4.754;2022-09-12T11:41:42;23.50;99.90
3562;DHT22;1795;52.074;4.754;2022-09-12T11:44:17;23.60;99.90
3562;DHT22;1795;52.074;4.754;2022-09-12T11:46:46;23.60;99.90
3562;DHT22;1795;52.074;4.754;2022-09-12T11:49:23;23.70;99.90
3562;DHT22;1795;52.074;4.754;2022-09-12T11:51:55;23.80;99.90
3562;DHT22;1795;52.074;4.754;2022-09-12T11:54:31;23.80;99.90
3562;DHT22;1795;52.074;4.754;2022-09-12T11:57:15;23.90;99.90
3562;DHT22;1795;52.074;4.754;2022-09-12T11:59:49;23.90;99.90
3562;DHT22;1795;52.074;4.754;2022-09-12T12:02:24;24.00;99.90
3562;DHT22;1795;52.074;4.754;2022-09-12T12:05:04;24.10;99.90
3562;DHT22;1795;52.074;4.754;2022-09-12T12:07:39;24.10;99.90
3562;DHT22;1795;52.074;4.754;2022-09-12T12:10:24;24.20;99.90
3562;DHT22;1795;52.074;4.754;2022-09-12T12:12:53;24.30;99.90
3562;DHT22;1795;52.074;4.754;2022-09-12T12:15:23;24.30;99.90
3562;DHT22;1795;52.074;4.754;2022-09-12T12:18:04;24.30;99.90
3562;DHT22;1795;52.074;4.754;2022-09-12T12:20:33;24.40;99.90
3562;DHT22;1795;52.074;4.754;2022-09-12T12:23:02;24.50;99.90
3562;DHT22;1795;52.074;4.754;2022-09-12T12:25:50;24.50;99.90
3562;DHT22;1795;52.074;4.754;2022-09-12T12:31:24;24.60;99.90
3562;DHT22;1795;52.074;4.754;2022-09-12T12:34:26;24.70;99.90
3562;DHT22;1795;52.074;4.754;2022-09-12T12:36:55;24.70;99.90
3562;DHT22;1795;52.074;4.754;2022-09-12T12:43:13;24.80;99.90
3562;DHT22;1795;52.074;4.754;2022-09-12T12:46:08;24.80;99.90
3562;DHT22;1795;52.074;4.754;2022-09-12T12:49:06;24.90;99.90
3562;DHT22;1795;52.074;4.754;2022-09-12T12:51:47;24.90;99.90
3562;DHT22;1795;52.074;4.754;2022-09-12T12:57:26;25.00;99.90
3562;DHT22;1795;52.074;4.754;2022-09-12T12:59:59;25.00;99.90
3562;DHT22;1795;52.074;4.754;2022-09-12T13:02:30;25.10;99.90
3562;DHT22;1795;52.074;4.754;2022-09-12T13:05:02;25.10;99.90
3562;DHT22;1795;52.074;4.754;2022-09-12T13:07:33;25.10;99.90
3562;DHT22;1795;52.074;4.754;2022-09-12T13:10:03;25.10;99.90
3562;DHT22;1795;52.074;4.754;2022-09-12T13:12:34;25.20;99.90
3562;DHT22;1795;52.074;4.754;2022-09-12T13:15:40;25.20;99.90
3562;DHT22;1795;52.074;4.754;2022-09-12T13:18:17;25.30;99.90
3562;DHT22;1795;52.074;4.754;2022-09-12T13:20:50;25.30;99.90
3562;DHT22;1795;52.074;4.754;2022-09-12T13:23:24;25.40;99.90
3562;DHT22;1795;52.074;4.754;2022-09-12T13:25:54;25.40;99.90
3562;DHT22;1795;52.074;4.754;2022-09-12T13:28:23;25.50;99.90
3562;DHT22;1795;52.074;4.754;2022-09-12T13:30:59;25.50;99.90
3562;DHT22;1795;52.074;4.754;2022-09-12T13:33:35;25.60;99.90
3562;DHT22;1795;52.074;4.754;2022-09-12T13:36:21;25.70;99.90
3562;DHT22;1795;52.074;4.754;2022-09-12T13:39:08;25.70;99.90
3562;DHT22;1795;52.074;4.754;2022-09-12T13:42:06;25.80;99.90
3562;DHT22;1795;52.074;4.754;2022-09-12T13:44:45;25.90;99.90
3562;DHT22;1795;52.074;4.754;2022-09-12T13:47:20;25.90;99.90
3562;DHT22;1795;52.074;4.754;2022-09-12T13:49:52;26.00;99.90
3562;DHT22;1795;52.074;4.754;2022-09-12T13:52:23;26.10;99.90
3562;DHT22;1795;52.074;4.754;2022-09-12T13:54:54;26.20;99.90
3562;DHT22;1795;52.074;4.754;2022-09-12T13:57:31;26.30;99.90
3562;DHT22;1795;52.074;4.754;2022-09-12T14:00:03;26.40;99.90
3562;DHT22;1795;52.074;4.754;2022-09-12T14:02:34;26.40;99.90
3562;DHT22;1795;52.074;4.754;2022-09-12T14:05:19;26.50;99.90
3562;DHT22;1795;52.074;4.754;2022-09-12T14:07:51;26.60;99.90
3562;DHT22;1795;52.074;4.754;2022-09-12T14:10:27;26.60;99.90
3562;DHT22;1795;52.074;4.754;2022-09-12T14:12:58;26.70;99.90
3562;DHT22;1795;52.074;4.754;2022-09-12T14:15:30;26.70;99.90
3562;DHT22;1795;52.074;4.754;2022-09-12T14:18:00;26.80;99.90
3562;DHT22;1795;52.074;4.754;2022-09-12T14:20:34;26.80;99.90
3562;DHT22;1795;52.074;4.754;2022-09-12T14:23:10;26.90;99.90
3562;DHT22;1795;52.074;4.754;2022-09-12T14:25:42;26.90;99.90
3562;DHT22;1795;52.074;4.754;2022-09-12T14:28:15;26.90;99.90
3562;DHT22;1795;52.074;4.754;2022-09-12T14:31:00;26.90;99.90
3562;DHT22;1795;52.074;4.754;2022-09-12T14:33:32;26.90;99.90
3562;DHT22;1795;52.074;4.754;2022-09-12T14:36:10;27.00;99.90
3562;DHT22;1795;52.074;4.754;2022-09-12T14:38:41;27.00;99.90
3562;DHT22;1795;52.074;4.754;2022-09-12T14:41:11;27.10;99.90
3562;DHT22;1795;52.074;4.754;2022-09-12T14:43:43;27.10;99.90
3562;DHT22;1795;52.074;4.754;2022-09-12T14:46:17;27.10;99.90
3562;DHT22;1795;52.074;4.754;2022-09-12T14:48:49;27.10;99.90
3562;DHT22;1795;52.074;4.754;2022-09-12T14:51:24;27.20;99.90
3562;DHT22;1795;52.074;4.754;2022-09-12T14:53:52;27.20;99.90
3562;DHT22;1795;52.074;4.754;2022-09-12T14:56:21;27.20;99.90
3562;DHT22;1795;52.074;4.754;2022-09-12T14:59:26;27.20;99.90
3562;DHT22;1795;52.074;4.754;2022-09-12T15:02:25;27.30;99.90
3562;DHT22;1795;52.074;4.754;2022-09-12T15:05:13;27.30;99.90
3562;DHT22;1795;52.074;4.754;2022-09-12T15:07:44;27.40;99.90
3562;DHT22;1795;52.074;4.754;2022-09-12T15:10:21;27.50;99.90
3562;DHT22;1795;52.074;4.754;2022-09-12T15:13:08;27.50;99.90
3562;DHT22;1795;52.074;4.754;2022-09-12T15:15:39;27.50;99.90
3562;DHT22;1795;52.074;4.754;2022-09-12T15:18:07;27.50;99.90
3562;DHT22;1795;52.074;4.754;2022-09-12T15:20:36;27.50;99.90
3562;DHT22;1795;52.074;4.754;2022-09-12T15:23:12;27.50;99.90
3562;DHT22;1795;52.074;4.754;2022-09-12T15:25:41;27.50;99.70
3562;DHT22;1795;52.074;4.754;2022-09-12T15:28:15;27.50;99.90
3562;DHT22;1795;52.074;4.754;2022-09-12T15:30:44;27.50;99.80
3562;DHT22;1795;52.074;4.754;2022-09-12T15:33:12;27.50;99.90
3562;DHT22;1795;52.074;4.754;2022-09-12T15:35:41;27.50;99.80
3562;DHT22;1795;52.074;4.754;2022-09-12T15:38:10;27.50;99.80
3562;DHT22;1795;52.074;4.754;2022-09-12T15:40:38;27.50;99.90
3562;DHT22;1795;52.074;4.754;2022-09-12T15:43:06;27.50;99.70
3562;DHT22;1795;52.074;4.754;2022-09-12T15:45:34;27.50;98.40
3562;DHT22;1795;52.074;4.754;2022-09-12T15:48:02;27.50;98.90
3562;DHT22;1795;52.074;4.754;2022-09-12T15:50:31;27.40;99.20
3562;DHT22;1795;52.074;4.754;2022-09-12T15:52:59;27.40;99.10
3562;DHT22;1795;52.074;4.754;2022-09-12T15:55:30;27.40;98.60
3562;DHT22;1795;52.074;4.754;2022-09-12T15:57:58;27.30;99.50
3562;DHT22;1795;52.074;4.754;2022-09-12T16:00:32;27.30;99.20
3562;DHT22;1795;52.074;4.754;2022-09-12T16:03:00;27.20;99.80
3562;DHT22;1795;52.074;4.754;2022-09-12T16:05:29;27.20;99.90
3562;DHT22;1795;52.074;4.754;2022-09-12T16:07:57;27.10;99.90
3562;DHT22;1795;52.074;4.754;2022-09-12T16:10:27;27.00;99.90
3562;DHT22;1795;52.074;4.754;2022-09-12T16:12:57;27.00;99.90
3562;DHT22;1795;52.074;4.754;2022-09-12T16:15:25;26.90;99.90
3562;DHT22;1795;52.074;4.754;2022-09-12T16:17:53;26.90;99.90
3562;DHT22;1795;52.074;4.754;2022-09-12T16:20:21;26.80;99.90
3562;DHT22;1795;52.074;4.754;2022-09-12T16:22:50;26.70;99.90
3562;DHT22;1795;52.074;4.754;2022-09-12T16:25:17;26.70;99.90
3562;DHT22;1795;52.074;4.754;2022-09-12T16:27:45;26.60;99.90
3562;DHT22;1795;52.074;4.754;2022-09-12T16:30:15;26.50;99.90
3562;DHT22;1795;52.074;4.754;2022-09-12T16:32:43;26.40;99.90
3562;DHT22;1795;52.074;4.754;2022-09-12T16:35:11;26.30;99.90
3562;DHT22;1795;52.074;4.754;2022-09-12T16:37:39;26.30;99.90
3562;DHT22;1795;52.074;4.754;2022-09-12T16:40:07;26.20;99.90
3562;DHT22;1795;52.074;4.754;2022-09-12T16:42:36;26.10;99.90
3562;DHT22;1795;52.074;4.754;2022-09-12T16:45:09;26.10;99.90
3562;DHT22;1795;52.074;4.754;2022-09-12T16:47:39;26.00;99.90
3562;DHT22;1795;52.074;4.754;2022-09-12T16:50:07;25.90;99.90
3562;DHT22;1795;52.074;4.754;2022-09-12T16:52:35;25.80;99.90
3562;DHT22;1795;52.074;4.754;2022-09-12T16:55:04;25.80;99.90
3562;DHT22;1795;52.074;4.754;2022-09-12T16:57:32;25.70;99.90
3562;DHT22;1795;52.074;4.754;2022-09-12T17:00:00;25.60;99.90